Time;durP1;ratioP1;P1;durP2;ratioP2;P2;SDS_P1;SDS_P2;PMS_P1;PMS_P2;Temp;Humidity;BMP_temperature;BMP_pressure;BME280_temperature;BME280_humidity;BME280_pressure;Samples;Min_cycle;Max_cycle;Signal;HPM_P1;HPM_P2
2021/08/12 07:20:49;;;;;;;10.75;6.05;;;21.50;99.90;;;;;;12081138;27;20417;-59
2021/08/12 07:26:36;;;;;;;9.23;5.95;;;21.90;99.90;;;;;;12085909;28;20059;-58
2021/08/12 07:32:23;;;;;;;15.38;6.57;;;22.60;99.90;;;;;;12088734;28;20055;-58
2021/08/12 07:51:44;;;;;;;14.80;6.72;;;23.60;99.90;;;;;;12162862;27;20173;-57
2021/08/12 08:09:44;;;;;;;11.52;6.70;;;23.90;99.90;;;;;;12066621;28;20925;-59
2021/08/12 08:15:31;;;;;;;13.52;6.25;;;24.00;99.90;;;;;;12034350;28;20079;-55
2021/08/12 08:21:18;;;;;;;13.52;6.10;;;24.20;99.90;;;;;;12036815;28;20040;-58
2021/08/12 08:27:06;;;;;;;10.00;6.25;;;24.20;99.90;;;;;;12033380;28;20382;-57
2021/08/12 08:32:53;;;;;;;11.57;5.95;;;24.30;99.90;;;;;;12036820;28;20052;-59
2021/08/12 09:07:31;;;;;;;13.10;6.03;;;23.50;99.90;;;;;;12070278;27;20953;-57
2021/08/12 09:13:18;;;;;;;11.57;6.40;;;24.00;99.90;;;;;;12065601;28;20527;-59
2021/08/12 09:19:13;;;;;;;15.63;6.85;;;24.40;99.90;;;;;;12070430;28;20079;-58
2021/08/12 09:25:01;;;;;;;17.70;6.18;;;24.70;99.90;;;;;;12070897;28;20064;-54
2021/08/12 09:31:07;;;;;;;13.93;5.90;;;24.90;99.90;;;;;;12068721;28;20593;-61
2021/08/12 09:37:04;;;;;;;15.45;6.15;;;25.10;99.90;;;;;;12071000;28;20129;-59
2021/08/12 09:43:01;;;;;;;14.70;6.55;;;25.20;99.90;;;;;;12062596;28;20055;-59
2021/08/12 09:48:58;;;;;;;10.20;6.15;;;25.40;99.90;;;;;;12067305;28;20047;-59
2021/08/12 09:54:45;;;;;;;14.80;5.70;;;25.50;99.90;;;;;;12069099;28;20347;-59
2021/08/12 10:00:38;;;;;;;9.45;5.85;;;25.70;99.90;;;;;;12068672;28;20051;-59
2021/08/12 10:06:28;;;;;;;10.68;5.82;;;25.70;99.90;;;;;;12067842;28;20056;-60
2021/08/12 10:12:33;;;;;;;8.57;5.63;;;25.80;99.90;;;;;;12066634;28;20121;-59
2021/08/12 10:18:22;;;;;;;11.20;6.25;;;25.70;99.00;;;;;;12033288;28;20147;-62
2021/08/12 10:24:10;;;;;;;12.50;5.57;;;25.90;99.30;;;;;;12031828;28;20056;-60
2021/08/12 10:29:57;;;;;;;10.02;5.47;;;26.10;99.40;;;;;;12035082;28;20409;-60
2021/08/12 10:35:46;;;;;;;9.38;6.25;;;26.30;98.30;;;;;;12031559;28;20516;-60
2021/08/12 10:41:35;;;;;;;15.35;6.25;;;26.40;97.60;;;;;;12037457;28;20055;-60
2021/08/12 10:47:42;;;;;;;16.27;6.90;;;26.50;97.40;;;;;;12035361;28;20048;-60
2021/08/12 10:53:30;;;;;;;10.73;5.95;;;26.80;96.40;;;;;;12029547;28;20048;-61
2021/08/12 10:59:35;;;;;;;13.45;6.47;;;26.90;95.30;;;;;;12028508;28;20048;-60
2021/08/12 11:05:22;;;;;;;15.20;6.95;;;26.90;94.90;;;;;;12034609;28;20079;-61
2021/08/12 11:11:11;;;;;;;9.93;6.50;;;26.90;94.30;;;;;;12030455;28;20051;-62
2021/08/12 11:16:58;;;;;;;12.23;6.75;;;27.20;94.50;;;;;;12034092;28;20405;-62
2021/08/12 11:22:45;;;;;;;10.88;6.57;;;27.20;94.40;;;;;;12029535;28;20452;-63
2021/08/12 11:28:51;;;;;;;16.25;6.78;;;27.40;94.30;;;;;;12031686;28;21230;-62
2021/08/12 11:34:55;;;;;;;14.55;6.90;;;27.50;92.50;;;;;;12031687;28;20132;-62
2021/08/12 11:40:42;;;;;;;10.63;6.30;;;27.60;92.30;;;;;;12034273;28;20052;-62
2021/08/12 11:46:36;;;;;;;12.30;6.63;;;27.70;92.50;;;;;;12032031;28;20577;-62
2021/08/12 11:52:25;;;;;;;12.20;6.18;;;27.80;92.80;;;;;;12029592;28;20075;-62
2021/08/12 11:58:18;;;;;;;12.73;7.35;;;27.90;92.30;;;;;;12017182;28;20060;-62
2021/08/12 12:04:07;;;;;;;;;;;28.00;91.50;;;;;;12048115;28;20434;-62
2021/08/12 12:09:54;;;;;;;8.45;6.40;;;28.10;90.80;;;;;;12063780;28;19920;-62
2021/08/12 12:15:43;;;;;;;13.82;6.32;;;28.10;90.60;;;;;;12063225;28;20202;-62
2021/08/12 12:21:31;;;;;;;8.15;6.35;;;28.30;90.90;;;;;;12063691;28;20052;-63
2021/08/12 12:27:20;;;;;;;12.77;6.82;;;28.60;90.80;;;;;;12063180;28;20044;-64
2021/08/12 12:33:09;;;;;;;13.02;7.03;;;28.70;90.30;;;;;;12063192;28;20496;-64
2021/08/12 12:38:58;;;;;;;20.23;9.20;;;28.90;87.10;;;;;;12063179;28;20058;-64
2021/08/12 12:44:58;;;;;;;13.70;6.53;;;29.00;88.80;;;;;;12062984;28;20045;-67
2021/08/12 12:50:47;;;;;;;15.00;7.05;;;29.10;86.30;;;;;;12052852;28;20040;-62
2021/08/12 12:56:36;;;;;;;14.40;7.07;;;29.20;86.20;;;;;;12022666;28;20053;-62
2021/08/12 13:02:23;;;;;;;10.20;6.07;;;29.40;84.80;;;;;;12023474;28;20057;-62
2021/08/12 13:08:13;;;;;;;8.05;6.18;;;29.70;82.60;;;;;;12015132;28;20126;-63
2021/08/12 13:14:11;;;;;;;8.55;6.22;;;30.00;80.80;;;;;;12020252;28;20528;-63
2021/08/12 13:20:09;;;;;;;8.63;6.28;;;30.30;80.10;;;;;;12034127;28;21572;-62
2021/08/12 13:25:57;;;;;;;9.05;6.15;;;30.70;78.20;;;;;;12061599;28;20056;-63
2021/08/12 13:31:48;;;;;;;8.02;6.47;;;30.70;76.80;;;;;;12061479;28;20036;-63
2021/08/12 13:37:34;;;;;;;9.10;7.10;;;30.60;77.10;;;;;;12061382;28;20047;-62
2021/08/12 13:43:21;;;;;;;10.52;6.63;;;30.80;76.80;;;;;;12061159;28;20049;-63
2021/08/12 13:49:10;;;;;;;7.90;6.40;;;31.10;76.80;;;;;;12061263;28;20054;-61
2021/08/12 13:54:56;;;;;;;9.35;6.07;;;31.00;74.20;;;;;;12029484;28;20056;-63
2021/08/12 14:00:43;;;;;;;7.40;5.95;;;31.10;74.90;;;;;;12058234;28;20048;-63
2021/08/12 14:06:32;;;;;;;9.70;6.10;;;31.40;74.20;;;;;;12068628;28;20416;-63
2021/08/12 14:12:20;;;;;;;8.90;6.20;;;31.50;73.90;;;;;;12068571;28;20432;-62
2021/08/12 14:18:07;;;;;;;14.88;7.40;;;31.20;73.30;;;;;;12069192;28;20056;-63
2021/08/12 14:23:55;;;;;;;11.85;6.30;;;31.00;76.30;;;;;;12066291;28;20512;-62
2021/08/12 14:29:42;;;;;;;9.40;6.32;;;30.80;75.70;;;;;;12067001;28;20056;-63
2021/08/12 14:35:28;;;;;;;11.60;6.65;;;30.80;76.90;;;;;;12068489;28;20036;-63
2021/08/12 14:41:17;;;;;;;10.38;6.25;;;30.70;77.20;;;;;;12067967;28;20041;-62
2021/08/12 14:47:04;;;;;;;12.80;6.55;;;31.00;77.20;;;;;;12067983;28;20602;-61
2021/08/12 14:52:51;;;;;;;7.93;6.22;;;31.20;76.50;;;;;;12047707;28;20048;-62
2021/08/12 14:58:39;;;;;;;11.60;7.38;;;31.40;76.10;;;;;;12027228;28;20052;-62
2021/08/12 15:04:27;;;;;;;15.65;6.88;;;31.50;74.60;;;;;;12021570;28;20048;-62
2021/08/12 15:10:14;;;;;;;9.27;5.90;;;31.50;73.80;;;;;;12027253;28;20503;-62
2021/08/12 15:16:02;;;;;;;16.40;6.35;;;31.40;74.90;;;;;;12022893;28;20053;-62
2021/08/12 15:28:21;;;;;;;12.38;6.78;;;31.70;73.40;;;;;;12065873;28;20148;-62
2021/08/12 15:34:09;;;;;;;12.55;6.45;;;31.70;73.40;;;;;;12065496;28;20053;-61
2021/08/12 15:39:57;;;;;;;7.60;6.75;;;31.80;72.60;;;;;;12064585;28;20055;-61
2021/08/12 15:45:44;;;;;;;9.25;6.38;;;31.70;73.10;;;;;;12064756;28;20520;-62
2021/08/12 15:51:32;;;;;;;11.13;6.72;;;31.60;73.60;;;;;;12045652;28;20078;-61
2021/08/12 15:57:20;;;;;;;10.98;6.85;;;31.80;71.90;;;;;;12049878;28;20487;-62
2021/08/12 16:03:06;;;;;;;7.72;6.20;;;31.90;70.50;;;;;;12063514;28;20040;-63
2021/08/12 16:08:55;;;;;;;12.85;6.10;;;31.50;72.60;;;;;;12063981;28;20044;-63
2021/08/12 16:14:42;;;;;;;8.60;6.47;;;31.40;84.00;;;;;;12062029;28;20074;-63
2021/08/12 16:20:28;;;;;;;6.95;6.07;;;33.20;80.10;;;;;;12063803;28;20044;-63
2021/08/12 16:26:18;;;;;;;14.65;7.68;;;35.90;69.10;;;;;;12063129;28;20423;-61
2021/08/12 16:32:05;;;;;;;8.20;6.38;;;37.40;59.70;;;;;;12062218;28;20045;-63
2021/08/12 16:37:52;;;;;;;12.43;6.00;;;38.70;60.00;;;;;;12062359;28;20431;-63
2021/08/12 16:43:40;;;;;;;11.50;6.03;;;39.40;53.60;;;;;;12063554;28;20052;-63
2021/08/12 16:49:27;;;;;;;7.65;5.78;;;40.10;52.30;;;;;;12061586;28;20036;-63
2021/08/12 16:55:14;;;;;;;8.52;5.55;;;40.60;49.90;;;;;;12035269;28;20393;-63
2021/08/12 17:01:02;;;;;;;19.83;6.13;;;41.20;49.10;;;;;;12062820;28;20072;-63
2021/08/12 17:06:49;;;;;;;7.30;5.45;;;38.80;52.50;;;;;;12060993;28;20055;-62
2021/08/12 17:12:36;;;;;;;9.93;5.95;;;38.80;53.50;;;;;;12062068;28;20055;-63
2021/08/12 17:18:24;;;;;;;7.82;5.80;;;40.30;51.10;;;;;;12062215;28;20051;-63
2021/08/12 17:24:11;;;;;;;7.68;5.07;;;41.30;48.90;;;;;;12063099;28;20041;-62
2021/08/12 17:30:01;;;;;;;7.10;5.03;;;41.40;46.80;;;;;;12070847;28;20040;-62
2021/08/12 17:35:50;;;;;;;8.02;5.85;;;41.30;47.90;;;;;;12071449;28;20044;-62
2021/08/12 17:41:37;;;;;;;10.32;5.63;;;41.10;50.70;;;;;;12071304;28;20049;-62
2021/08/12 17:47:24;;;;;;;12.93;5.18;;;40.00;49.00;;;;;;12070662;28;20155;-62
2021/08/12 17:53:15;;;;;;;6.82;5.35;;;39.30;48.90;;;;;;12044068;28;20056;-62
2021/08/12 17:59:03;;;;;;;8.32;5.30;;;39.10;50.50;;;;;;12064541;28;20041;-62
2021/08/12 18:04:51;;;;;;;6.40;5.07;;;39.00;52.10;;;;;;12069294;28;20041;-62
2021/08/12 18:10:39;;;;;;;11.57;6.10;;;38.40;51.40;;;;;;12068706;28;20431;-62
2021/08/12 18:16:27;;;;;;;8.07;5.78;;;36.90;54.40;;;;;;12068635;28;20043;-62
2021/08/12 18:22:14;;;;;;;8.13;5.80;;;34.70;57.70;;;;;;12068591;28;20052;-62
2021/08/12 18:28:02;;;;;;;8.30;6.15;;;33.10;62.10;;;;;;12068495;28;20048;-62
2021/08/12 18:33:49;;;;;;;18.88;6.13;;;32.20;64.70;;;;;;12069464;28;20051;-64
2021/08/12 18:39:37;;;;;;;15.60;5.97;;;31.60;67.00;;;;;;12068600;28;20045;-62
2021/08/12 18:45:25;;;;;;;10.98;5.88;;;31.10;69.20;;;;;;12067122;28;20048;-63
2021/08/12 18:51:12;;;;;;;8.25;5.60;;;30.60;71.00;;;;;;12057766;28;20135;-62
2021/08/12 18:56:59;;;;;;;10.77;5.97;;;30.20;74.20;;;;;;12062145;28;20044;-63
2021/08/12 19:02:47;;;;;;;11.02;6.60;;;29.80;75.60;;;;;;12067118;28;20537;-64
2021/08/12 19:08:34;;;;;;;10.48;5.93;;;29.40;77.20;;;;;;12066961;28;20047;-63
2021/08/12 19:14:21;;;;;;;12.73;5.88;;;29.10;78.70;;;;;;12067242;28;20041;-63
2021/08/12 19:20:11;;;;;;;9.35;6.28;;;28.80;80.00;;;;;;12067105;28;20044;-63
2021/08/12 19:26:00;;;;;;;10.40;6.50;;;28.60;81.00;;;;;;12066389;28;20052;-64
2021/08/12 19:31:54;;;;;;;17.55;7.38;;;28.50;81.70;;;;;;12066584;28;20064;-63
2021/08/12 19:37:42;;;;;;;10.45;6.55;;;28.30;82.80;;;;;;12066154;28;20052;-63
2021/08/12 19:43:29;;;;;;;10.23;6.75;;;28.10;83.80;;;;;;12065147;28;20048;-63
2021/08/12 19:49:16;;;;;;;15.73;7.15;;;28.00;84.40;;;;;;12064754;28;20036;-62
2021/08/12 19:55:06;;;;;;;9.63;6.45;;;27.90;84.60;;;;;;12026342;28;20137;-63
2021/08/12 20:00:53;;;;;;;12.75;6.53;;;27.80;85.60;;;;;;12021290;28;20043;-63
2021/08/12 20:06:39;;;;;;;13.45;7.22;;;27.70;86.50;;;;;;12064511;28;20044;-63
2021/08/12 20:12:38;;;;;;;11.43;6.82;;;27.60;87.00;;;;;;12064478;28;20048;-63
2021/08/12 20:18:28;;;;;;;11.00;6.95;;;27.50;87.70;;;;;;12063799;28;20049;-63
2021/08/12 20:24:15;;;;;;;14.05;7.78;;;27.40;88.40;;;;;;12063853;28;20496;-63
2021/08/12 20:30:05;;;;;;;11.68;6.70;;;27.40;89.30;;;;;;12063278;28;20412;-63
2021/08/12 20:35:51;;;;;;;15.15;7.68;;;27.30;89.90;;;;;;12063568;28;20454;-63
2021/08/12 20:41:38;;;;;;;11.07;7.32;;;27.30;90.20;;;;;;12064025;28;20121;-63
2021/08/12 20:47:27;;;;;;;16.17;7.00;;;27.30;90.40;;;;;;12063285;28;20558;-65
2021/08/12 20:53:14;;;;;;;14.95;7.60;;;27.30;90.60;;;;;;12040453;28;20059;-64
2021/08/12 21:05:44;;;;;;;13.45;7.72;;;27.30;91.10;;;;;;12061844;28;20048;-62
2021/08/12 21:11:32;;;;;;;12.63;7.32;;;27.20;91.00;;;;;;12062754;28;20053;-64
2021/08/12 21:17:21;;;;;;;14.65;7.65;;;27.30;90.80;;;;;;12062152;28;20068;-62
2021/08/12 21:23:10;;;;;;;15.25;8.32;;;27.20;90.70;;;;;;12062185;28;20193;-64
2021/08/12 21:28:56;;;;;;;20.45;9.25;;;27.20;91.20;;;;;;12061883;28;20060;-62
2021/08/12 21:34:43;;;;;;;12.27;7.47;;;27.10;91.50;;;;;;12061831;28;20047;-62
2021/08/12 21:40:32;;;;;;;11.18;7.18;;;27.00;91.00;;;;;;12061409;28;20511;-63
2021/08/12 21:46:20;;;;;;;16.20;7.22;;;27.00;90.60;;;;;;12061444;28;20516;-62
2021/08/12 21:52:07;;;;;;;14.52;7.70;;;27.00;90.40;;;;;;12045769;28;20049;-62
2021/08/12 21:57:55;;;;;;;16.40;6.97;;;27.00;90.40;;;;;;12062099;28;20037;-62
2021/08/12 22:03:42;;;;;;;11.07;7.47;;;26.90;90.80;;;;;;12061159;28;20051;-63
2021/08/12 22:09:29;;;;;;;11.75;6.80;;;26.80;90.30;;;;;;12061267;28;20048;-62
2021/08/12 22:15:23;;;;;;;12.98;6.70;;;26.80;90.90;;;;;;12069097;28;20126;-63
2021/08/12 22:21:10;;;;;;;16.10;7.30;;;26.70;91.20;;;;;;12069642;28;20045;-63
2021/08/12 22:26:57;;;;;;;15.15;7.22;;;26.60;91.60;;;;;;12069763;28;20060;-63
2021/08/12 22:32:46;;;;;;;11.40;6.90;;;26.50;91.30;;;;;;12068276;28;20535;-62
2021/08/12 22:38:33;;;;;;;13.40;7.13;;;26.40;91.40;;;;;;12069090;28;20045;-63
2021/08/12 22:44:21;;;;;;;14.45;7.95;;;26.40;91.30;;;;;;12068306;28;20044;-62
2021/08/12 22:50:12;;;;;;;13.10;6.82;;;26.40;91.50;;;;;;12067890;28;20068;-66
2021/08/12 22:55:59;;;;;;;9.65;6.45;;;26.30;91.50;;;;;;12068109;28;20056;-66
2021/08/12 23:01:45;;;;;;;13.00;6.78;;;26.30;91.40;;;;;;12066783;28;20047;-66
2021/08/12 23:07:50;;;;;;;13.00;6.20;;;26.20;91.60;;;;;;12068072;28;20401;-66
2021/08/12 23:13:38;;;;;;;14.85;6.70;;;26.00;91.70;;;;;;12070094;28;20511;-66
2021/08/12 23:19:25;;;;;;;13.68;6.80;;;26.10;91.90;;;;;;12069708;28;20139;-66
2021/08/12 23:25:14;;;;;;;11.77;7.15;;;26.10;91.90;;;;;;12069203;28;20577;-66
2021/08/12 23:31:00;;;;;;;12.23;6.35;;;26.10;92.00;;;;;;12069259;28;20097;-66
2021/08/12 23:36:48;;;;;;;12.70;7.30;;;25.90;92.20;;;;;;12069268;28;20040;-66
2021/08/12 23:42:36;;;;;;;17.52;6.90;;;25.80;92.50;;;;;;12068712;28;20033;-66
2021/08/12 23:48:23;;;;;;;17.95;7.00;;;25.70;92.90;;;;;;12068557;28;20043;-67
2021/08/12 23:54:10;;;;;;;12.93;6.43;;;25.60;92.80;;;;;;12035999;28;20581;-66
2021/08/12 23:59:58;;;;;;;9.38;6.43;;;25.60;92.90;;;;;;12066697;28;20055;-66
